Punta Arenas, Chile

10:43 AM CLT on July 07, 2015 (GMT -0300)
Carlos Ibanez Del Campo International | | Change Station
CLOSE
Current Station
Airport
Location: Punta Arenas,
Elevation: 121 ft
Nearby Weather Stations

Elev 121 ft 53.00 °S, 70.85 °W | Updated 43 minutes ago

Overcast
Overcast
32 °F
Feels Like 26 °F
N
7
Wind Variable Wind from ESE

Today
High -- | Low -- °F
--% Chance of Precip.
Yesterday
High -- | Low -- °F
Precip. -- in
9:55 AM 5:41 PM
Waning Gibbous, 65% visible
Pressure 29.77 in
Visibility 3.1 miles
Clouds Mostly Cloudy 800 ft
Overcast 1300 ft
Windchill 26 °F
Dew Point 30 °F
Humidity 93%
Rainfall 0.00 in
Snow Depth Not available.
UV 0 out of 12
Pollen Not available.
Air Quality Not available.
Flu Activity Not available.
METAR SCCI 071300Z 11006KT 5000 BR BKN008 OVC013 M00/M01 Q1008 NOSIG

More Conditions Fewer Conditions

Pressure 29.77 in
Visibility 3.1 miles
Clouds Mostly Cloudy 800 ft
Overcast 1300 ft
Windchill 26 °F
Dew Point 30 °F
Humidity 93%
Rainfall 0.00 in
Snow Depth Not available.
UV 0 out of 12
Pollen Not available.
Air Quality Not available.
Flu Activity Not available.
METAR SCCI 071300Z 11006KT 5000 BR BKN008 OVC013 M00/M01 Q1008 NOSIG

More Conditions Fewer Conditions

10-Day Weather Forecast

×

Almanac

Astronomy

Jul. 07, 2015 Rise Set
Actual Time
Civil Twilight
Nautical Twilight
Astronomical Twilight
Moon
Length of Visible Light
Length of Day
Tomorrow will be .
, % of the Moon is Illuminated

Today's Extremes

Country Highs Country Lows

Community

WunderPhotos

Upload Photos

1,835,797 photos uploaded!

WunderBlogs® & News

Nearby

Air Quality

  Air Quality AQ Index Pollutant
Not available.

Snow Depth

Station Depth Elevation

Earthquake Activity

City Distance Mag. Time & Date
Minimum magnitude displayed is 2.5.

Coastal Water Temperatures

Place Temperature

Stations

Nearby Weather Stations

Station Location Temp. Windchill Dew Point Humidity Wind Precip. Elev Updated Type